sensor_id;sensor_type;location;lat;lon;timestamp;pressure;altitude;pressure_sealevel;temperature;humidity
50268;BME280;36153;50.960;6.220;2022-07-25T00:00:07;100141.38;;;25.67;46.37
50268;BME280;36153;50.960;6.220;2022-07-25T00:03:11;100135.59;;;25.75;46.44
50268;BME280;36153;50.960;6.220;2022-07-25T00:06:11;100136.03;;;25.67;46.28
50268;BME280;36153;50.960;6.220;2022-07-25T00:09:12;100131.63;;;25.66;46.76
50268;BME280;36153;50.960;6.220;2022-07-25T00:12:12;100128.72;;;25.55;47.22
50268;BME280;36153;50.960;6.220;2022-07-25T00:15:13;100133.16;;;25.40;48.24
50268;BME280;36153;50.960;6.220;2022-07-25T00:18:13;100130.53;;;25.38;48.25
50268;BME280;36153;50.960;6.220;2022-07-25T00:21:13;100125.41;;;25.35;48.20
50268;BME280;36153;50.960;6.220;2022-07-25T00:24:14;100119.69;;;25.26;48.17
50268;BME280;36153;50.960;6.220;2022-07-25T00:27:14;100122.44;;;25.24;48.23
50268;BME280;36153;50.960;6.220;2022-07-25T00:30:14;100112.28;;;25.15;48.09
50268;BME280;36153;50.960;6.220;2022-07-25T00:33:15;100119.53;;;25.13;48.77
50268;BME280;36153;50.960;6.220;2022-07-25T00:36:15;100119.16;;;25.19;48.30
50268;BME280;36153;50.960;6.220;2022-07-25T00:39:15;100119.53;;;25.13;48.21
50268;BME280;36153;50.960;6.220;2022-07-25T00:42:16;100114.28;;;25.27;47.61
50268;BME280;36153;50.960;6.220;2022-07-25T00:45:16;100108.34;;;25.06;47.94
50268;BME280;36153;50.960;6.220;2022-07-25T00:48:17;100114.03;;;25.16;47.77
50268;BME280;36153;50.960;6.220;2022-07-25T00:51:17;100108.38;;;25.22;47.17
50268;BME280;36153;50.960;6.220;2022-07-25T00:54:19;100119.09;;;25.04;47.98
50268;BME280;36153;50.960;6.220;2022-07-25T00:57:20;100112.59;;;25.26;46.95
50268;BME280;36153;50.960;6.220;2022-07-25T01:00:20;100108.28;;;25.39;47.24
50268;BME280;36153;50.960;6.220;2022-07-25T01:03:21;100097.03;;;25.34;46.72
50268;BME280;36153;50.960;6.220;2022-07-25T01:06:21;100097.03;;;25.34;46.46
50268;BME280;36153;50.960;6.220;2022-07-25T01:09:22;100093.50;;;25.18;47.43
50268;BME280;36153;50.960;6.220;2022-07-25T01:12:22;100089.72;;;25.06;48.52
50268;BME280;36153;50.960;6.220;2022-07-25T01:15:24;100085.22;;;25.07;47.83
50268;BME280;36153;50.960;6.220;2022-07-25T01:18:25;100086.22;;;25.37;46.56
50268;BME280;36153;50.960;6.220;2022-07-25T01:21:26;100082.94;;;25.16;47.59
50268;BME280;36153;50.960;6.220;2022-07-25T01:24:27;100081.38;;;25.12;47.38
50268;BME280;36153;50.960;6.220;2022-07-25T01:27:28;100077.94;;;24.94;47.35
50268;BME280;36153;50.960;6.220;2022-07-25T01:30:28;100080.69;;;25.09;46.78
50268;BME280;36153;50.960;6.220;2022-07-25T01:33:29;100082.16;;;25.14;46.73
50268;BME280;36153;50.960;6.220;2022-07-25T01:36:29;100082.66;;;25.21;46.17
50268;BME280;36153;50.960;6.220;2022-07-25T01:39:29;100076.06;;;25.12;46.60
50268;BME280;36153;50.960;6.220;2022-07-25T01:42:31;100067.78;;;24.85;48.42
50268;BME280;36153;50.960;6.220;2022-07-25T01:45:31;100063.84;;;24.76;49.01
50268;BME280;36153;50.960;6.220;2022-07-25T01:48:32;100064.34;;;24.67;48.83
50268;BME280;36153;50.960;6.220;2022-07-25T01:51:32;100064.41;;;24.65;48.14
50268;BME280;36153;50.960;6.220;2022-07-25T01:54:33;100063.66;;;24.95;47.07
50268;BME280;36153;50.960;6.220;2022-07-25T01:57:33;100064.22;;;25.18;46.16
50268;BME280;36153;50.960;6.220;2022-07-25T02:00:33;100061.63;;;25.32;45.55
50268;BME280;36153;50.960;6.220;2022-07-25T02:03:34;100052.34;;;25.08;46.73
50268;BME280;36153;50.960;6.220;2022-07-25T02:06:34;100056.88;;;24.90;47.77
50268;BME280;36153;50.960;6.220;2022-07-25T02:09:35;100056.44;;;24.65;48.46
50268;BME280;36153;50.960;6.220;2022-07-25T02:12:35;100049.56;;;24.61;48.66
50268;BME280;36153;50.960;6.220;2022-07-25T02:15:36;100047.03;;;24.58;48.46
50268;BME280;36153;50.960;6.220;2022-07-25T02:18:36;100044.38;;;24.58;48.73
50268;BME280;36153;50.960;6.220;2022-07-25T02:21:37;100039.19;;;24.55;49.34
50268;BME280;36153;50.960;6.220;2022-07-25T02:24:37;100045.22;;;24.43;49.53
50268;BME280;36153;50.960;6.220;2022-07-25T02:27:37;100038.56;;;24.34;49.94
50268;BME280;36153;50.960;6.220;2022-07-25T02:30:38;100025.91;;;24.22;50.05
50268;BME280;36153;50.960;6.220;2022-07-25T02:33:38;100026.06;;;24.18;50.47
50268;BME280;36153;50.960;6.220;2022-07-25T02:36:38;100022.13;;;24.10;50.52
50268;BME280;36153;50.960;6.220;2022-07-25T02:39:39;100015.94;;;24.09;50.97
50268;BME280;36153;50.960;6.220;2022-07-25T02:42:39;100016.25;;;24.03;50.99
50268;BME280;36153;50.960;6.220;2022-07-25T02:45:40;100012.28;;;23.94;51.21
50268;BME280;36153;50.960;6.220;2022-07-25T02:48:40;100003.69;;;23.89;51.43
50268;BME280;36153;50.960;6.220;2022-07-25T02:51:41;100005.16;;;23.77;51.70
50268;BME280;36153;50.960;6.220;2022-07-25T02:54:41;99998.81;;;23.62;52.15
50268;BME280;36153;50.960;6.220;2022-07-25T02:57:41;99997.25;;;23.58;52.13
50268;BME280;36153;50.960;6.220;2022-07-25T03:00:42;99991.38;;;23.51;52.46
50268;BME280;36153;50.960;6.220;2022-07-25T03:03:42;99992.94;;;23.38;52.78
50268;BME280;36153;50.960;6.220;2022-07-25T03:06:42;99992.88;;;23.57;51.93
50268;BME280;36153;50.960;6.220;2022-07-25T03:09:43;99985.94;;;23.72;51.58
50268;BME280;36153;50.960;6.220;2022-07-25T03:12:44;99980.28;;;23.78;51.06
50268;BME280;36153;50.960;6.220;2022-07-25T03:15:44;99984.59;;;23.81;51.08
50268;BME280;36153;50.960;6.220;2022-07-25T03:18:45;99975.13;;;23.75;51.54
50268;BME280;36153;50.960;6.220;2022-07-25T03:21:46;99969.66;;;23.78;51.40
50268;BME280;36153;50.960;6.220;2022-07-25T03:24:46;99965.59;;;23.71;51.11
50268;BME280;36153;50.960;6.220;2022-07-25T03:27:46;99962.56;;;23.61;51.80
50268;BME280;36153;50.960;6.220;2022-07-25T03:30:47;99965.13;;;23.63;51.78
50268;BME280;36153;50.960;6.220;2022-07-25T03:33:47;99971.53;;;23.59;51.39
50268;BME280;36153;50.960;6.220;2022-07-25T03:36:47;99972.41;;;23.59;51.55
50268;BME280;36153;50.960;6.220;2022-07-25T03:39:48;99975.22;;;23.56;51.56
50268;BME280;36153;50.960;6.220;2022-07-25T03:42:48;99961.09;;;23.73;50.82
50268;BME280;36153;50.960;6.220;2022-07-25T03:45:49;99960.03;;;23.76;51.22
50268;BME280;36153;50.960;6.220;2022-07-25T03:48:49;99951.28;;;23.74;51.07
50268;BME280;36153;50.960;6.220;2022-07-25T03:51:49;99949.81;;;23.85;50.83
50268;BME280;36153;50.960;6.220;2022-07-25T03:54:50;99952.16;;;23.92;50.78
50268;BME280;36153;50.960;6.220;2022-07-25T03:57:50;99945.28;;;23.88;51.46
50268;BME280;36153;50.960;6.220;2022-07-25T04:00:50;99953.97;;;23.91;50.96
50268;BME280;36153;50.960;6.220;2022-07-25T04:03:51;99950.44;;;23.91;51.37
50268;BME280;36153;50.960;6.220;2022-07-25T04:06:51;99944.34;;;23.89;51.51
50268;BME280;36153;50.960;6.220;2022-07-25T04:09:52;99946.47;;;23.99;51.11
50268;BME280;36153;50.960;6.220;2022-07-25T04:12:52;99940.97;;;24.02;51.49
50268;BME280;36153;50.960;6.220;2022-07-25T04:15:52;99934.94;;;23.99;51.68
50268;BME280;36153;50.960;6.220;2022-07-25T04:18:53;99926.03;;;24.00;51.75
50268;BME280;36153;50.960;6.220;2022-07-25T04:21:53;99926.41;;;24.10;50.78
50268;BME280;36153;50.960;6.220;2022-07-25T04:24:54;99927.47;;;24.23;50.96
50268;BME280;36153;50.960;6.220;2022-07-25T04:27:54;99921.97;;;24.26;51.25
50268;BME280;36153;50.960;6.220;2022-07-25T04:30:54;99920.25;;;24.25;51.51
50268;BME280;36153;50.960;6.220;2022-07-25T04:33:55;99920.31;;;24.40;51.20
50268;BME280;36153;50.960;6.220;2022-07-25T04:36:56;99921.09;;;24.58;50.92
50268;BME280;36153;50.960;6.220;2022-07-25T04:39:56;99922.31;;;24.84;50.12
50268;BME280;36153;50.960;6.220;2022-07-25T04:42:56;99917.00;;;24.84;50.29
50268;BME280;36153;50.960;6.220;2022-07-25T04:45:57;99916.44;;;25.09;49.78
50268;BME280;36153;50.960;6.220;2022-07-25T04:48:58;99905.38;;;25.31;49.33
50268;BME280;36153;50.960;6.220;2022-07-25T04:51:59;99901.78;;;25.32;49.84
50268;BME280;36153;50.960;6.220;2022-07-25T04:54:59;99901.06;;;25.45;50.25
50268;BME280;36153;50.960;6.220;2022-07-25T04:57:59;99897.38;;;25.47;50.05
50268;BME280;36153;50.960;6.220;2022-07-25T05:01:00;99902.78;;;25.46;49.88
50268;BME280;36153;50.960;6.220;2022-07-25T05:04:00;99900.59;;;25.52;50.01
50268;BME280;36153;50.960;6.220;2022-07-25T05:07:00;99905.66;;;25.71;49.94
50268;BME280;36153;50.960;6.220;2022-07-25T05:10:01;99902.00;;;26.03;48.59
50268;BME280;36153;50.960;6.220;2022-07-25T05:13:03;99904.25;;;26.23;48.56
50268;BME280;36153;50.960;6.220;2022-07-25T05:16:03;99900.25;;;26.31;47.63
50268;BME280;36153;50.960;6.220;2022-07-25T05:19:04;99894.97;;;26.44;47.59
50268;BME280;36153;50.960;6.220;2022-07-25T05:22:04;99895.34;;;26.52;47.33
50268;BME280;36153;50.960;6.220;2022-07-25T05:25:06;99891.94;;;26.77;48.06
50268;BME280;36153;50.960;6.220;2022-07-25T05:28:06;99889.66;;;26.98;48.95
50268;BME280;36153;50.960;6.220;2022-07-25T05:31:07;99886.25;;;26.96;49.03
50268;BME280;36153;50.960;6.220;2022-07-25T05:34:07;99877.47;;;27.07;48.97
50268;BME280;36153;50.960;6.220;2022-07-25T05:37:08;99874.75;;;27.34;48.06
50268;BME280;36153;50.960;6.220;2022-07-25T05:40:08;99878.22;;;27.49;48.16
50268;BME280;36153;50.960;6.220;2022-07-25T05:43:09;99878.66;;;27.56;47.88
50268;BME280;36153;50.960;6.220;2022-07-25T05:46:09;99873.09;;;27.59;48.26
50268;BME280;36153;50.960;6.220;2022-07-25T05:49:09;99872.88;;;27.62;48.57
50268;BME280;36153;50.960;6.220;2022-07-25T05:52:10;99873.53;;;27.66;47.93
50268;BME280;36153;50.960;6.220;2022-07-25T05:55:10;99868.81;;;27.69;47.21
50268;BME280;36153;50.960;6.220;2022-07-25T05:58:11;99868.81;;;27.82;47.00
50268;BME280;36153;50.960;6.220;2022-07-25T06:01:12;99870.47;;;27.96;46.68
50268;BME280;36153;50.960;6.220;2022-07-25T06:04:13;99873.44;;;28.30;46.33
50268;BME280;36153;50.960;6.220;2022-07-25T06:07:13;99873.97;;;28.35;46.19
50268;BME280;36153;50.960;6.220;2022-07-25T06:10:14;99867.50;;;28.51;46.20
50268;BME280;36153;50.960;6.220;2022-07-25T06:13:14;99876.53;;;28.61;45.66
50268;BME280;36153;50.960;6.220;2022-07-25T06:16:14;99871.38;;;28.71;45.05
50268;BME280;36153;50.960;6.220;2022-07-25T06:19:15;99866.25;;;29.03;44.12
50268;BME280;36153;50.960;6.220;2022-07-25T06:22:15;99868.31;;;29.24;43.03
50268;BME280;36153;50.960;6.220;2022-07-25T06:25:16;99868.47;;;29.45;42.47
50268;BME280;36153;50.960;6.220;2022-07-25T06:28:16;99855.69;;;29.71;42.15
50268;BME280;36153;50.960;6.220;2022-07-25T06:31:17;99853.19;;;29.92;41.84
50268;BME280;36153;50.960;6.220;2022-07-25T06:34:18;99862.44;;;30.00;39.35
50268;BME280;36153;50.960;6.220;2022-07-25T06:37:18;99860.81;;;30.20;37.80
50268;BME280;36153;50.960;6.220;2022-07-25T06:40:18;99872.28;;;30.44;37.10
50268;BME280;36153;50.960;6.220;2022-07-25T06:43:19;99875.69;;;30.58;36.09
50268;BME280;36153;50.960;6.220;2022-07-25T06:46:19;99877.78;;;30.75;35.46
50268;BME280;36153;50.960;6.220;2022-07-25T06:49:20;99864.56;;;30.84;34.73
50268;BME280;36153;50.960;6.220;2022-07-25T06:52:20;99868.00;;;30.86;34.50
50268;BME280;36153;50.960;6.220;2022-07-25T06:55:21;99871.94;;;30.70;34.94
50268;BME280;36153;50.960;6.220;2022-07-25T06:58:21;99872.16;;;30.78;35.60
50268;BME280;36153;50.960;6.220;2022-07-25T07:01:22;99870.38;;;30.68;34.40
50268;BME280;36153;50.960;6.220;2022-07-25T07:04:22;99878.47;;;30.89;33.69
50268;BME280;36153;50.960;6.220;2022-07-25T07:07:22;99869.03;;;30.73;34.33
50268;BME280;36153;50.960;6.220;2022-07-25T07:10:23;99877.81;;;30.96;34.83
50268;BME280;36153;50.960;6.220;2022-07-25T07:13:24;99876.00;;;30.97;35.28
50268;BME280;36153;50.960;6.220;2022-07-25T07:16:24;99876.94;;;31.07;35.17
50268;BME280;36153;50.960;6.220;2022-07-25T07:19:25;99881.22;;;30.66;35.18
50268;BME280;36153;50.960;6.220;2022-07-25T07:22:26;99882.47;;;30.62;36.19
50268;BME280;36153;50.960;6.220;2022-07-25T07:25:26;99894.47;;;30.35;35.36
50268;BME280;36153;50.960;6.220;2022-07-25T07:28:26;99892.53;;;30.14;35.29
50268;BME280;36153;50.960;6.220;2022-07-25T07:31:27;99896.91;;;30.38;35.71
50268;BME280;36153;50.960;6.220;2022-07-25T07:34:27;99888.03;;;30.26;35.82
50268;BME280;36153;50.960;6.220;2022-07-25T07:37:28;99897.06;;;30.25;35.77
50268;BME280;36153;50.960;6.220;2022-07-25T07:40:28;99904.59;;;29.75;35.54
50268;BME280;36153;50.960;6.220;2022-07-25T07:43:29;99908.88;;;29.77;35.36
50268;BME280;36153;50.960;6.220;2022-07-25T07:46:30;99909.13;;;29.74;35.84
50268;BME280;36153;50.960;6.220;2022-07-25T07:49:31;99906.06;;;29.79;36.66
50268;BME280;36153;50.960;6.220;2022-07-25T07:52:31;99901.59;;;30.02;36.45
50268;BME280;36153;50.960;6.220;2022-07-25T07:55:31;99896.97;;;29.93;36.67
50268;BME280;36153;50.960;6.220;2022-07-25T07:58:44;99889.50;;;29.96;35.94
50268;BME280;36153;50.960;6.220;2022-07-25T08:01:44;99900.34;;;29.95;36.06
50268;BME280;36153;50.960;6.220;2022-07-25T08:04:45;99902.03;;;29.62;36.39
50268;BME280;36153;50.960;6.220;2022-07-25T08:07:45;99915.38;;;29.39;36.92
50268;BME280;36153;50.960;6.220;2022-07-25T08:10:47;99914.44;;;29.63;37.26
50268;BME280;36153;50.960;6.220;2022-07-25T08:13:47;99920.69;;;29.75;37.36
50268;BME280;36153;50.960;6.220;2022-07-25T08:16:48;99923.22;;;29.42;38.68
50268;BME280;36153;50.960;6.220;2022-07-25T08:19:48;99923.47;;;29.51;38.09
50268;BME280;36153;50.960;6.220;2022-07-25T08:22:49;99913.41;;;29.30;38.19
50268;BME280;36153;50.960;6.220;2022-07-25T08:25:50;99912.97;;;29.12;38.60
50268;BME280;36153;50.960;6.220;2022-07-25T08:28:50;99918.66;;;29.32;38.31
50268;BME280;36153;50.960;6.220;2022-07-25T08:31:50;99918.13;;;29.73;38.11
50268;BME280;36153;50.960;6.220;2022-07-25T08:34:51;99918.69;;;29.90;36.46
50268;BME280;36153;50.960;6.220;2022-07-25T08:37:52;99912.06;;;30.28;35.53
50268;BME280;36153;50.960;6.220;2022-07-25T08:40:54;99918.78;;;30.11;34.92
50268;BME280;36153;50.960;6.220;2022-07-25T08:43:55;99918.41;;;30.16;35.13
50268;BME280;36153;50.960;6.220;2022-07-25T08:46:56;99924.34;;;29.74;34.48
50268;BME280;36153;50.960;6.220;2022-07-25T08:49:57;99928.66;;;29.99;35.46
50268;BME280;36153;50.960;6.220;2022-07-25T08:52:57;99929.75;;;30.53;35.30
50268;BME280;36153;50.960;6.220;2022-07-25T08:55:58;99931.44;;;30.43;33.99
50268;BME280;36153;50.960;6.220;2022-07-25T08:58:58;99943.31;;;30.29;34.59
50268;BME280;36153;50.960;6.220;2022-07-25T09:01:59;99940.63;;;30.52;34.41
50268;BME280;36153;50.960;6.220;2022-07-25T09:05:03;99940.66;;;30.84;34.51
50268;BME280;36153;50.960;6.220;2022-07-25T09:08:15;99942.56;;;31.05;33.59
50268;BME280;36153;50.960;6.220;2022-07-25T09:11:31;99940.09;;;30.69;33.42
50268;BME280;36153;50.960;6.220;2022-07-25T09:14:42;99951.50;;;30.16;33.70
50268;BME280;36153;50.960;6.220;2022-07-25T09:17:50;99946.28;;;30.81;33.78
50268;BME280;36153;50.960;6.220;2022-07-25T09:20:56;99956.63;;;30.97;33.41
50268;BME280;36153;50.960;6.220;2022-07-25T09:24:15;99956.94;;;30.71;33.17
50268;BME280;36153;50.960;6.220;2022-07-25T09:27:15;99970.13;;;30.63;32.80
50268;BME280;36153;50.960;6.220;2022-07-25T09:30:17;99967.47;;;30.29;32.52
50268;BME280;36153;50.960;6.220;2022-07-25T09:33:17;99969.28;;;30.06;32.90
50268;BME280;36153;50.960;6.220;2022-07-25T09:36:18;99979.66;;;30.67;32.39
50268;BME280;36153;50.960;6.220;2022-07-25T09:39:18;99980.84;;;30.86;31.55
50268;BME280;36153;50.960;6.220;2022-07-25T09:45:20;99983.59;;;30.52;31.67
50268;BME280;36153;50.960;6.220;2022-07-25T09:48:21;99997.72;;;30.31;31.13
50268;BME280;36153;50.960;6.220;2022-07-25T09:51:21;99987.22;;;30.05;31.55
50268;BME280;36153;50.960;6.220;2022-07-25T09:54:22;99994.22;;;29.84;30.84
50268;BME280;36153;50.960;6.220;2022-07-25T09:57:23;99984.78;;;30.36;30.74
50268;BME280;36153;50.960;6.220;2022-07-25T10:00:26;99980.41;;;30.69;31.04
50268;BME280;36153;50.960;6.220;2022-07-25T10:07:08;99971.69;;;30.77;30.86
50268;BME280;36153;50.960;6.220;2022-07-25T10:10:29;99973.06;;;30.14;32.30
50268;BME280;36153;50.960;6.220;2022-07-25T10:13:32;99964.03;;;30.27;31.60
50268;BME280;36153;50.960;6.220;2022-07-25T10:16:45;99963.31;;;30.36;31.88
50268;BME280;36153;50.960;6.220;2022-07-25T10:19:47;99953.72;;;30.89;32.14
50268;BME280;36153;50.960;6.220;2022-07-25T10:22:48;99953.75;;;30.77;31.57
50268;BME280;36153;50.960;6.220;2022-07-25T10:26:02;99954.53;;;30.57;31.82
50268;BME280;36153;50.960;6.220;2022-07-25T10:29:10;99964.19;;;30.59;32.48
50268;BME280;36153;50.960;6.220;2022-07-25T10:32:11;99971.09;;;30.85;33.07
50268;BME280;36153;50.960;6.220;2022-07-25T10:35:15;99963.03;;;30.85;32.23
50268;BME280;36153;50.960;6.220;2022-07-25T10:38:23;99957.91;;;31.89;31.17
50268;BME280;36153;50.960;6.220;2022-07-25T10:41:24;99965.34;;;32.06;30.67
50268;BME280;36153;50.960;6.220;2022-07-25T10:44:27;99963.31;;;31.89;30.64
50268;BME280;36153;50.960;6.220;2022-07-25T10:47:33;99973.06;;;32.42;30.55
50268;BME280;36153;50.960;6.220;2022-07-25T10:50:47;99965.88;;;31.58;31.50
50268;BME280;36153;50.960;6.220;2022-07-25T10:53:48;99969.81;;;31.54;31.48
50268;BME280;36153;50.960;6.220;2022-07-25T10:56:51;99967.94;;;31.44;31.38
50268;BME280;36153;50.960;6.220;2022-07-25T10:59:52;99969.94;;;31.31;32.43
50268;BME280;36153;50.960;6.220;2022-07-25T11:02:55;99973.69;;;31.72;33.06
50268;BME280;36153;50.960;6.220;2022-07-25T11:05:56;99987.84;;;31.74;31.66
50268;BME280;36153;50.960;6.220;2022-07-25T11:08:56;99982.03;;;32.62;31.43
50268;BME280;36153;50.960;6.220;2022-07-25T11:11:59;99987.06;;;32.86;30.28
50268;BME280;36153;50.960;6.220;2022-07-25T11:15:04;99987.34;;;32.11;31.69
50268;BME280;36153;50.960;6.220;2022-07-25T11:18:05;99993.34;;;31.94;33.11
50268;BME280;36153;50.960;6.220;2022-07-25T11:21:07;99989.34;;;31.67;33.39
50268;BME280;36153;50.960;6.220;2022-07-25T11:24:08;99978.34;;;32.01;32.87
50268;BME280;36153;50.960;6.220;2022-07-25T11:27:30;99980.50;;;32.28;33.02
50268;BME280;36153;50.960;6.220;2022-07-25T11:30:30;99984.13;;;32.99;32.97
50268;BME280;36153;50.960;6.220;2022-07-25T11:33:30;99987.13;;;33.06;32.36
50268;BME280;36153;50.960;6.220;2022-07-25T11:36:31;99992.03;;;32.71;32.98
50268;BME280;36153;50.960;6.220;2022-07-25T11:39:34;100000.28;;;32.89;32.35
50268;BME280;36153;50.960;6.220;2022-07-25T11:42:43;99996.16;;;32.75;33.09
50268;BME280;36153;50.960;6.220;2022-07-25T11:45:55;100004.41;;;32.53;33.77
50268;BME280;36153;50.960;6.220;2022-07-25T11:49:03;100008.88;;;33.43;32.00
50268;BME280;36153;50.960;6.220;2022-07-25T11:52:04;100006.00;;;33.15;32.17
50268;BME280;36153;50.960;6.220;2022-07-25T11:55:07;100022.88;;;33.17;33.10
50268;BME280;36153;50.960;6.220;2022-07-25T11:58:09;100020.75;;;33.11;32.84
50268;BME280;36153;50.960;6.220;2022-07-25T12:01:11;100022.38;;;32.83;33.52
50268;BME280;36153;50.960;6.220;2022-07-25T12:04:17;100023.50;;;32.40;33.70
50268;BME280;36153;50.960;6.220;2022-07-25T12:07:17;100023.31;;;32.31;34.08
50268;BME280;36153;50.960;6.220;2022-07-25T12:10:21;100018.47;;;31.83;34.99
50268;BME280;36153;50.960;6.220;2022-07-25T12:13:27;100013.63;;;32.19;34.81
50268;BME280;36153;50.960;6.220;2022-07-25T12:16:27;100018.59;;;32.55;33.33
50268;BME280;36153;50.960;6.220;2022-07-25T12:19:28;100025.41;;;32.59;33.01
50268;BME280;36153;50.960;6.220;2022-07-25T12:22:28;100028.34;;;32.77;32.98
50268;BME280;36153;50.960;6.220;2022-07-25T12:25:29;100015.22;;;33.03;32.38
50268;BME280;36153;50.960;6.220;2022-07-25T12:28:30;100023.34;;;33.62;31.81
50268;BME280;36153;50.960;6.220;2022-07-25T12:31:30;100020.00;;;32.99;32.06
50268;BME280;36153;50.960;6.220;2022-07-25T12:34:30;100020.94;;;32.69;33.11
50268;BME280;36153;50.960;6.220;2022-07-25T12:37:31;100019.75;;;32.62;32.57
50268;BME280;36153;50.960;6.220;2022-07-25T12:40:32;100023.72;;;32.58;33.44
50268;BME280;36153;50.960;6.220;2022-07-25T12:43:32;100040.25;;;32.74;32.76
50268;BME280;36153;50.960;6.220;2022-07-25T12:46:36;100030.75;;;32.80;31.85
50268;BME280;36153;50.960;6.220;2022-07-25T12:49:37;100037.09;;;32.69;32.03
50268;BME280;36153;50.960;6.220;2022-07-25T12:52:38;100023.22;;;33.34;31.14
50268;BME280;36153;50.960;6.220;2022-07-25T12:55:39;100021.03;;;33.96;30.59
50268;BME280;36153;50.960;6.220;2022-07-25T12:58:40;100022.38;;;33.33;30.14
50268;BME280;36153;50.960;6.220;2022-07-25T13:01:40;100014.25;;;33.63;29.58
50268;BME280;36153;50.960;6.220;2022-07-25T13:04:41;100020.22;;;33.57;30.41
50268;BME280;36153;50.960;6.220;2022-07-25T13:07:41;100028.50;;;32.75;31.92
50268;BME280;36153;50.960;6.220;2022-07-25T13:10:42;100018.13;;;32.80;31.42
50268;BME280;36153;50.960;6.220;2022-07-25T13:13:42;100015.25;;;33.42;29.86
50268;BME280;36153;50.960;6.220;2022-07-25T13:16:43;100019.88;;;33.21;30.15
50268;BME280;36153;50.960;6.220;2022-07-25T13:19:44;100018.84;;;32.42;30.51
50268;BME280;36153;50.960;6.220;2022-07-25T13:22:44;100029.66;;;32.52;31.17
50268;BME280;36153;50.960;6.220;2022-07-25T13:25:45;100017.03;;;32.93;30.67
50268;BME280;36153;50.960;6.220;2022-07-25T13:28:45;100022.38;;;32.83;30.58
50268;BME280;36153;50.960;6.220;2022-07-25T13:31:45;100030.72;;;32.70;31.23
50268;BME280;36153;50.960;6.220;2022-07-25T13:34:46;100020.78;;;32.71;31.81
50268;BME280;36153;50.960;6.220;2022-07-25T13:37:47;100043.56;;;32.57;32.39
50268;BME280;36153;50.960;6.220;2022-07-25T13:40:47;100042.84;;;32.55;32.03
50268;BME280;36153;50.960;6.220;2022-07-25T13:43:47;100045.28;;;32.27;32.31
50268;BME280;36153;50.960;6.220;2022-07-25T13:46:48;100043.84;;;32.23;31.59
50268;BME280;36153;50.960;6.220;2022-07-25T13:49:49;100042.44;;;32.07;31.87
50268;BME280;36153;50.960;6.220;2022-07-25T13:52:49;100038.69;;;32.41;31.59
50268;BME280;36153;50.960;6.220;2022-07-25T13:55:50;100040.81;;;32.47;31.88
50268;BME280;36153;50.960;6.220;2022-07-25T13:58:50;100052.03;;;32.00;32.83
50268;BME280;36153;50.960;6.220;2022-07-25T14:01:50;100048.94;;;32.05;33.29
50268;BME280;36153;50.960;6.220;2022-07-25T14:04:51;100069.94;;;32.11;32.65
50268;BME280;36153;50.960;6.220;2022-07-25T14:07:51;100064.72;;;31.56;34.41
50268;BME280;36153;50.960;6.220;2022-07-25T14:10:52;100080.56;;;31.70;33.89
50268;BME280;36153;50.960;6.220;2022-07-25T14:13:52;100090.53;;;30.58;35.48
50268;BME280;36153;50.960;6.220;2022-07-25T14:16:52;100091.50;;;30.45;35.41
50268;BME280;36153;50.960;6.220;2022-07-25T14:19:53;100092.91;;;30.27;35.52
50268;BME280;36153;50.960;6.220;2022-07-25T14:22:53;100106.50;;;29.77;36.79
50268;BME280;36153;50.960;6.220;2022-07-25T14:25:54;100102.09;;;29.89;36.76
50268;BME280;36153;50.960;6.220;2022-07-25T14:28:55;100103.13;;;30.10;36.70
50268;BME280;36153;50.960;6.220;2022-07-25T14:31:55;100096.03;;;29.98;36.82
50268;BME280;36153;50.960;6.220;2022-07-25T14:34:56;100109.28;;;29.64;36.90
50268;BME280;36153;50.960;6.220;2022-07-25T14:37:56;100109.28;;;29.64;37.13
50268;BME280;36153;50.960;6.220;2022-07-25T14:40:57;100121.78;;;29.76;37.37
50268;BME280;36153;50.960;6.220;2022-07-25T14:43:57;100106.50;;;29.41;37.55
50268;BME280;36153;50.960;6.220;2022-07-25T14:46:58;100108.28;;;29.04;38.01
50268;BME280;36153;50.960;6.220;2022-07-25T14:49:59;100113.56;;;28.80;38.63
50268;BME280;36153;50.960;6.220;2022-07-25T14:52:59;100104.97;;;29.00;38.10
50268;BME280;36153;50.960;6.220;2022-07-25T14:56:02;100114.91;;;29.24;37.96
50268;BME280;36153;50.960;6.220;2022-07-25T14:59:04;100109.91;;;29.06;37.67
50268;BME280;36153;50.960;6.220;2022-07-25T15:02:04;100104.59;;;29.55;36.74
50268;BME280;36153;50.960;6.220;2022-07-25T15:05:05;100108.81;;;29.94;35.55
50268;BME280;36153;50.960;6.220;2022-07-25T15:08:06;100108.00;;;31.09;33.92
50268;BME280;36153;50.960;6.220;2022-07-25T15:11:06;100106.59;;;31.81;32.31
50268;BME280;36153;50.960;6.220;2022-07-25T15:14:07;100115.81;;;31.67;31.15
50268;BME280;36153;50.960;6.220;2022-07-25T15:17:07;100106.84;;;31.34;31.00
50268;BME280;36153;50.960;6.220;2022-07-25T15:20:08;100105.91;;;31.68;30.46
50268;BME280;36153;50.960;6.220;2022-07-25T15:23:08;100109.22;;;31.05;31.55
50268;BME280;36153;50.960;6.220;2022-07-25T15:26:09;100113.13;;;31.23;32.15
50268;BME280;36153;50.960;6.220;2022-07-25T15:29:10;100117.25;;;31.39;31.25
50268;BME280;36153;50.960;6.220;2022-07-25T15:32:12;100107.75;;;31.56;31.33
50268;BME280;36153;50.960;6.220;2022-07-25T15:35:13;100109.72;;;31.54;31.35
50268;BME280;36153;50.960;6.220;2022-07-25T15:38:14;100108.34;;;31.15;30.85
50268;BME280;36153;50.960;6.220;2022-07-25T15:41:15;100107.50;;;30.92;32.00
50268;BME280;36153;50.960;6.220;2022-07-25T15:44:15;100128.41;;;30.89;30.91
50268;BME280;36153;50.960;6.220;2022-07-25T15:47:15;100110.19;;;30.92;30.84
50268;BME280;36153;50.960;6.220;2022-07-25T15:50:17;100101.16;;;30.59;31.04
50268;BME280;36153;50.960;6.220;2022-07-25T15:53:17;100118.81;;;30.39;31.31
50268;BME280;36153;50.960;6.220;2022-07-25T15:56:18;100106.78;;;30.09;31.88
50268;BME280;36153;50.960;6.220;2022-07-25T15:59:18;100119.88;;;29.66;32.59